Terminal Aerodrome Forecast
Issued by NWS

Current Version | Previous Version | Graphics & Text | Print | Product List | Glossary On
Versions: 1 2 3 4 5 6 7 8 9 10 11 12 13 14 15 16 17 18
000
FTUS41 KILN 300500
TAFLUK
TAF
KLUK 300529Z 3006/3106 23006KT P6SM SCT028 BKN045
     FM300800 28010KT P6SM SCT022
     FM301800 26010G20KT P6SM SCT040
     FM310000 23006KT P6SM SCT080 BKN150=

USA.gov is the U.S. government's official web portal to all federal, state and local government web resources and services.